INDIA METEOROLOGICAL DEPARTMENT, R.M.C. NEW DELHI
Dated:24 - 5 - 2015
METARS


Agartala   
VEAT 240830Z 13008KT 6000 SCT018 BKN100 31/21 Q1002 NOSIG=
Ahmedabad  
VAAH 240810Z 29010KT 6000 NSC 42/21 Q1003 NOSIG=
Amritsar   
VIAR 240830Z 10004KT 7000 SCT040 40/11 Q0999=
Bangalore  
VOBL 240830Z 29010KT 260V350 8000 FEW015 36/19 Q1013 NOSIG=
Baroda     
VABO 240830Z 22015KT 6000 NSC 39/22 Q1005=
Bhaunagar  
VABV 240700Z 23015KT 200U280 8000 FEW025 39/21 Q1006=
Bhopal     
VABP 240830Z 27010KT 6000 FEW030 42/12 Q1005 NOSIG=
Bhubaneswar
VEBS 240830Z 21005KT 5000 HZ FEW020 44/23 Q0999 NOSIG=
Bhuntar    
VIBR 240700Z 18004KT 8000 FEW040 31/07 Q1008=
Chennai    
VOMM 240840Z 25007KT 9000 FEW020 41/23 Q1003 NOSIG=
Coimbatore 
VOCB 240830Z 19010KT 7000 FEW015 34/23 Q1010 NOSIG=
Colombo    
VCBI 240840Z 23013KT 200V260 9999 FEW012 SCT016 31/25 Q1010 NOSIG=
Delhi      
VIDP 240830Z 25005KT 3500 HZ NSC 43/08 Q1000 NOSIG =
Dehradun   
VIDN 240830Z 28007KT 5000 HZ FEW040 41/09 Q1001 =
Gauhati    
VEGT 240830Z 24004KT 5000 HZ FEW018 FEW025CB SCT100 28/23 Q1003 TEMPO 3000 RA RMK CB TO NW/NE=
Gaya       
VEGY 240830Z 33012KT 5000 HZ NSC 45/11 Q0998 NOSIG=
Gaggal     
VIGG 240830Z 26003KT 5000 HZ FEW035 36/11 Q1005=
Fursatganj
VIRB 240800Z 27005KT 6000 NSC 44/14 Q0996=
Hyderabad  
COR VOHS 240840Z 31009KT 6000 SCT020 43/17 Q1009 NOSIG=
Imphal     
VEIM 240800Z 28002KT 5000 HZ FEW020 BKN100 29/21 Q1008 NOSIG=
Indore     
VAID 240800Z 28018KT 6000 NSC 40/10 Q1007 NOSIG=
Jaipur     
VIJP 240830Z 29013KT 4000 DU FEW035 41/11 Q1002 NOSIG=
Kochi      
VOCI 240830Z 26008KT 6000 SCT015 SCT020 34/26 Q1009 NOSIG=
Kolkata    
VECC 240850Z 16010KT 3500 HZ SCT018 SCT100 37/28 Q0999 NOSIG=
Kozhikode  
VOCL 240830Z 26006KT 8000 SCT015 SCT018 32/26 Q1010 NOSIG =
Lucknow    
VILK 240830Z 29008KT 6000 NSC 46/16 Q0998 NOSIG=
Madurai    
VOMD 240830Z 00000KT 8000 FEW020 37/23 Q1008 =
Mohanbari  
VEMN 240830Z 07005KT 4000 HZ FEW010 SCT018 FEW025CB BKN100 25/23 Q1004 NOSIG=
Mumbai     
VABB 240840Z 25008G18KT 6000 FEW020 SCT025 33/25 Q1008 NOSIG=
Nagpur     
VANP 240840Z 31007KT 6000 FEW020 45/15 Q1002 NOSIG=
Pantnagar
VIPT 240700Z 27003KT 4000 HZ NSC 37/10 Q1001=
Patna      
VEPT 240820Z 11005KT 6000 NSC 40/23 Q0998 NOSIG=
Raipur     
VARP 240830Z 33006KT 6000 FEW030 44/17 Q1002 NOSIG=
Safdarjung
VIDD 240800Z 20004KT 4000 DU NSC 42/15 Q0999=
Ranchi     
VERC 240830Z 32004KT 6000 SCT018 SCT025 40/13 Q1004 NOSIG=
Trichy     
VOTR 240840Z 26012KT 8000 FEW016 36/24 Q1006 NOSIG=
Trivandrum 
VOTV 240840Z 20010KT 6000 SCT015 FEW025CB SCT090 31/25 Q1009 NOSIG=
Udaipur    
VAUD 240800Z 25010KT 6000 NSC 38/17 Q1005 NOSIG=
Varanasi   
VIBN 240830Z 29011KT 6000 NSC 44/09 Q0998=
Vizag      
SPECI VOVZ 240830Z 20008KT 5000 FU FEW018 45/24 Q0999 NOSIG =
Male       
VRMM 240800Z 23012KT 9999 SCT018TCU BKN250 31/26 Q1012 NOSIG=
Kathmandu   
VNKT 240850Z 31012KT 8000 SCT025 31/12 Q1009 NOSIG=
Dhaka      
VGHS 240750Z 16012KT 5000 HZ FEW015 SCT100 32/20 Q1001 NOSIG=
Colombo     
VCBI 240840Z 23013KT 200V260 9999 FEW012 SCT016 31/25 Q1010 NOSIG=
Karachi     
OPKC 240825Z 24015KT 3000 BLDU NSC 37/19 Q1004 TEMPO 250G27KT=
Lahore      
OPLA 240825Z 00000KT 6000 NSC 41/11 Q0999=
Leh        
VILH 240730Z 21007KT 6000 FEW070 SCT090 15/M07 Q1020 NOSIG=
Thoise     
VITX 240730Z 32011KT 6000 FEW050 SCT070 BKN150 16/M08 Q1021 NOSIG=
Sri Nagar  
VISR 240730Z 06005KT 5000 BR TSRA FEW010 SCT012 FEW030CB BKN080 14/13 Q1019 TEMPO 18015G25 3000=
Jammu      
VIJU 240730Z 21004KT 6000 SCT030 40/06 Q1000 NOSIG=
Jodhpur    
VIJO 240730Z 25014KT 6000 SKC 39/20 Q1003 BECMG 5000M=
Bhuj-Rudra 
VABJ 240730Z 28011G21KT 6000 SKC 38/20 Q1005 NOSIG=
Gorakhpur  
VEGK 240730Z 11002KT 6000 SKC 39/20 Q0999 NOSIG=
Allahabad  
VIAL 240730Z 29012KT 6000 FEW100 45/13 Q0999 NOSIG=
Agra       
VIAG 240730Z 19003KT 6000 SKC 44/13 Q0999 NOSIG=
Siliguri   
VEBD 240730Z 05007KT 6000 SCT025 SCT030 BKN090 28/23 Q1003 NOSIG=
Gwalior    
VIGR 240730Z 28010G20KT 4000 FU FEW030 SCT100 43/15 Q1000 TEMPO 27015G25KT=
Pune       
VAPO 240730Z 30012G22KT 9999 FEW020 35/19 Q1013 NOSIG=
Chandigarh 
VICG 240730Z 16008KT 6000 SKC 41/08 Q1001 NOSIG=
Jamnagar   
VAJM 240730Z 27018G28KT 6000 SKC 36/27 Q1006 NOSIG=